createdAt,value
2019-03-16T00:00:25.251Z,13.56
2019-03-16T00:03:55.318Z,7.61
2019-03-16T00:07:32.814Z,11.97
2019-03-16T00:11:03.487Z,13.6
2019-03-16T00:14:33.577Z,8.25
2019-03-16T00:18:03.731Z,7.54
2019-03-16T00:21:33.764Z,10.49
2019-03-16T00:25:03.977Z,10.85
2019-03-16T00:28:34.949Z,8.5
2019-03-16T00:32:13.442Z,10
2019-03-16T00:35:44.023Z,10.36
2019-03-16T00:39:14.032Z,12.15
2019-03-16T00:42:44.380Z,10.26
2019-03-16T00:46:14.525Z,10.89
2019-03-16T00:49:44.619Z,11.5
2019-03-16T00:53:14.802Z,14.21
2019-03-16T00:56:44.935Z,9.68
2019-03-16T01:00:15.398Z,11.76
2019-03-16T01:03:45.521Z,10.24
2019-03-16T01:07:15.554Z,11.23
2019-03-16T01:10:45.597Z,11.93
2019-03-16T01:14:15.670Z,4.86
2019-03-16T01:17:45.654Z,12.16
2019-03-16T01:21:15.787Z,9.19
2019-03-16T01:24:45.922Z,9.89
2019-03-16T01:28:16.023Z,9.25
2019-03-16T01:31:46.276Z,14.12
2019-03-16T01:35:16.249Z,10.41
2019-03-16T01:38:46.292Z,14.9
2019-03-16T01:42:16.359Z,11.72
2019-03-16T01:45:46.509Z,14
2019-03-16T01:49:16.592Z,11.95
2019-03-16T01:52:46.640Z,12.2
2019-03-16T01:56:16.668Z,9.28
2019-03-16T01:59:46.793Z,11.95
2019-03-16T02:00:16.402Z,14.26
2019-03-16T02:03:46.656Z,14.42
2019-03-16T02:07:16.678Z,11.25
2019-03-16T02:10:46.652Z,12
2019-03-16T02:14:16.764Z,9.76
2019-03-16T02:17:46.716Z,10.29
2019-03-16T02:21:16.990Z,12.03
2019-03-16T02:24:47.026Z,12
2019-03-16T02:28:17.136Z,10.19
2019-03-16T02:31:47.419Z,13.32
2019-03-16T02:35:17.534Z,11.38
2019-03-16T02:38:47.627Z,12.2
2019-03-16T02:42:17.729Z,16.77
2019-03-16T02:45:47.852Z,13.54
2019-03-16T02:49:17.995Z,15.05
2019-03-16T02:52:50.018Z,12.06
2019-03-16T02:56:20.332Z,13.36
2019-03-16T02:59:50.174Z,14.49
2019-03-16T03:03:29.527Z,12.04
2019-03-16T03:07:00.331Z,16.91
2019-03-16T03:10:30.333Z,13.25
2019-03-16T03:14:00.326Z,11.07
2019-03-16T03:17:30.376Z,11.46
2019-03-16T03:21:00.382Z,13.41
2019-03-16T03:24:30.456Z,10.61
2019-03-16T03:28:00.460Z,12.12
2019-03-16T03:31:30.607Z,12.54
2019-03-16T03:35:01.713Z,14.24
2019-03-16T03:38:31.810Z,13.41
2019-03-16T03:42:01.809Z,11.35
2019-03-16T03:45:31.941Z,13.86
2019-03-16T03:49:02.060Z,11.49
2019-03-16T03:52:32.117Z,11.9
2019-03-16T03:56:02.190Z,11.41
2019-03-16T03:59:32.346Z,13.54
2019-03-16T04:00:16.511Z,12.41
2019-03-16T04:03:46.623Z,14.66
2019-03-16T04:07:20.059Z,14.75
2019-03-16T04:10:50.739Z,11.81
2019-03-16T04:14:20.796Z,13.84
2019-03-16T04:17:50.873Z,14.84
2019-03-16T04:21:21.074Z,16.02
2019-03-16T04:24:51.227Z,12.59
2019-03-16T04:28:21.248Z,12.78
2019-03-16T04:31:51.230Z,14.57
2019-03-16T04:35:22.272Z,12.99
2019-03-16T04:38:52.395Z,17.52
2019-03-16T04:42:22.527Z,11.9
2019-03-16T04:45:52.624Z,11.3
2019-03-16T04:49:22.687Z,13.19
2019-03-16T04:52:52.674Z,14.52
2019-03-16T04:56:22.742Z,16.16
2019-03-16T04:59:52.777Z,13.4
2019-03-16T05:03:22.844Z,13.49
2019-03-16T05:06:52.826Z,15.66
2019-03-16T05:10:22.854Z,15.03
2019-03-16T05:13:52.947Z,15.04
2019-03-16T05:17:23.018Z,14.21
2019-03-16T05:20:53.000Z,10.2
2019-03-16T05:24:23.194Z,11.3
2019-03-16T05:27:53.211Z,11.5
2019-03-16T05:31:23.289Z,12.12
2019-03-16T05:34:56.696Z,18.19
2019-03-16T05:38:27.111Z,11.91
2019-03-16T05:41:57.103Z,11.75
2019-03-16T05:45:27.186Z,13.59
2019-03-16T05:48:57.098Z,14.6
2019-03-16T05:52:27.210Z,13
2019-03-16T05:55:57.181Z,10.66
2019-03-16T05:59:27.184Z,12.05
2019-03-16T06:00:16.798Z,13.18
2019-03-16T06:03:46.767Z,9.45
2019-03-16T06:07:16.820Z,13.51
2019-03-16T06:10:46.816Z,12.23
2019-03-16T06:14:16.903Z,7.54
2019-03-16T06:17:46.936Z,13.99
2019-03-16T06:21:17.028Z,10.5
2019-03-16T06:24:47.150Z,10.46
2019-03-16T06:28:17.162Z,15.34
2019-03-16T06:31:47.184Z,10.39
2019-03-16T06:35:24.415Z,18.02
2019-03-16T06:38:57.369Z,8.82
2019-03-16T06:42:27.481Z,16.38
2019-03-16T06:45:57.513Z,13.29
2019-03-16T06:49:27.586Z,11
2019-03-16T06:52:57.685Z,12.24
2019-03-16T06:56:27.643Z,10
2019-03-16T06:59:57.563Z,8.81
2019-03-16T07:03:27.665Z,7.91
2019-03-16T07:06:57.727Z,3.68
2019-03-16T07:10:27.739Z,9.66
2019-03-16T07:13:57.768Z,6.9
2019-03-16T07:17:27.839Z,15.84
2019-03-16T07:20:57.967Z,16.49
2019-03-16T07:24:28.059Z,13.1
2019-03-16T07:27:58.091Z,15.91
2019-03-16T07:31:28.164Z,16.24
2019-03-16T07:34:58.277Z,23.2
2019-03-16T07:38:28.308Z,15.65
2019-03-16T07:42:00.640Z,20.23
2019-03-16T07:45:30.963Z,16.99
2019-03-16T07:49:00.936Z,17.3
2019-03-16T07:52:31.169Z,12.4
2019-03-16T07:56:01.351Z,14.23
2019-03-16T07:59:31.513Z,16.11
2019-03-16T08:00:16.204Z,18.35
2019-03-16T08:03:46.200Z,14.42
2019-03-16T08:07:16.305Z,18.65
2019-03-16T08:10:46.298Z,17.26
2019-03-16T08:14:16.503Z,16.12
2019-03-16T08:17:46.512Z,21.54
2019-03-16T08:21:16.672Z,19.36
2019-03-16T08:24:46.766Z,20.89
2019-03-16T08:28:16.881Z,17.02
2019-03-16T08:31:46.931Z,17.65
2019-03-16T08:35:17.202Z,18.59
2019-03-16T08:38:47.268Z,13.93
2019-03-16T08:42:17.456Z,15.74
2019-03-16T08:45:47.489Z,15.41
2019-03-16T08:49:17.501Z,14.27
2019-03-16T08:52:47.575Z,12.61
2019-03-16T08:56:17.598Z,10.79
2019-03-16T08:59:47.620Z,11.35
2019-03-16T09:03:17.746Z,12.09
2019-03-16T09:06:47.856Z,11.34
2019-03-16T09:10:17.951Z,11.32
2019-03-16T09:13:48.014Z,11.96
2019-03-16T09:17:18.064Z,13.9
2019-03-16T09:20:48.086Z,15.39
2019-03-16T09:24:18.079Z,12.26
2019-03-16T09:27:48.063Z,8.96
2019-03-16T09:31:18.126Z,11.02
2019-03-16T09:34:48.191Z,10.99
2019-03-16T09:38:18.302Z,14.54
2019-03-16T09:41:48.314Z,8.45
2019-03-16T09:45:19.427Z,14.56
2019-03-16T09:48:49.401Z,11.35
2019-03-16T09:52:19.453Z,8.9
2019-03-16T09:55:49.536Z,9.85
2019-03-16T09:59:19.688Z,12.91
2019-03-16T10:00:16.319Z,11.88
2019-03-16T10:03:46.382Z,10.35
2019-03-16T10:07:16.427Z,10.97
2019-03-16T10:10:46.448Z,11.59
2019-03-16T10:14:16.562Z,8.47
2019-03-16T10:17:46.644Z,10.6
2019-03-16T10:21:18.856Z,5.6
2019-03-16T10:24:49.110Z,7.29
2019-03-16T10:28:19.154Z,7.39
2019-03-16T10:31:49.121Z,7.47
2019-03-16T10:35:19.139Z,8.46
2019-03-16T10:38:49.113Z,13.24
2019-03-16T10:42:19.245Z,6.65
2019-03-16T10:45:50.211Z,12.59
2019-03-16T10:49:20.301Z,6.57
2019-03-16T10:52:50.353Z,6.09
2019-03-16T10:56:20.478Z,5.65
2019-03-16T10:59:50.501Z,4.31
2019-03-16T11:03:20.569Z,4.96
2019-03-16T11:06:50.539Z,2.69
2019-03-16T11:10:20.591Z,4.64
2019-03-16T11:13:50.662Z,2.69
2019-03-16T11:17:20.714Z,2.45
2019-03-16T11:20:50.778Z,2.41
2019-03-16T11:24:20.904Z,2.76
2019-03-16T11:27:51.117Z,3
2019-03-16T11:31:21.188Z,4.45
2019-03-16T11:34:51.261Z,3.59
2019-03-16T11:38:21.405Z,3.1
2019-03-16T11:41:51.551Z,2.39
2019-03-16T11:45:21.796Z,2.49
2019-03-16T11:48:52.774Z,2.77
2019-03-16T11:52:22.936Z,3.38
2019-03-16T11:55:54.427Z,3.32
2019-03-16T11:59:24.784Z,3.91
2019-03-16T12:00:16.414Z,6.14
2019-03-16T12:03:46.469Z,2.66
2019-03-16T12:07:16.533Z,3.58
2019-03-16T12:10:46.582Z,3.59
2019-03-16T12:14:16.654Z,2.33
2019-03-16T12:17:46.799Z,5.12
2019-03-16T12:21:16.895Z,2.53
2019-03-16T12:24:47.063Z,2.67
2019-03-16T12:28:17.135Z,8.7
2019-03-16T12:31:47.095Z,14.47
2019-03-16T12:35:17.185Z,13.8
2019-03-16T12:38:47.250Z,6.33
2019-03-16T12:42:17.306Z,9.88
2019-03-16T12:45:47.371Z,7.99
2019-03-16T12:49:18.357Z,6.05
2019-03-16T12:52:48.371Z,9.51
2019-03-16T12:56:18.467Z,36.59
2019-03-16T12:59:48.453Z,15.65
2019-03-16T13:03:18.679Z,7.08
2019-03-16T13:06:48.792Z,6.7
2019-03-16T13:10:18.937Z,10.72
2019-03-16T13:13:49.072Z,16.96
2019-03-16T13:17:19.108Z,10.95
2019-03-16T13:20:49.193Z,6.36
2019-03-16T13:24:19.261Z,12.42
2019-03-16T13:27:49.214Z,8.23
2019-03-16T13:31:19.323Z,6.38
2019-03-16T13:34:49.369Z,8.47
2019-03-16T13:38:19.449Z,22.41
2019-03-16T13:41:49.514Z,8.7
2019-03-16T13:45:19.689Z,9.03
2019-03-16T13:48:49.715Z,9.68
2019-03-16T13:52:20.969Z,10.26
2019-03-16T13:55:50.985Z,5.05
2019-03-16T13:59:21.110Z,6.1
2019-03-16T14:00:16.309Z,9.02
2019-03-16T14:03:46.414Z,6.01
2019-03-16T14:07:16.719Z,6.69
2019-03-16T14:10:46.754Z,17.79
2019-03-16T14:14:17.120Z,14.09
2019-03-16T14:17:47.185Z,13.5
2019-03-16T14:21:17.500Z,12.36
2019-03-16T14:24:47.535Z,27.66
2019-03-16T14:28:17.611Z,26.04
2019-03-16T14:31:47.675Z,15.28
2019-03-16T14:35:17.811Z,10.56
2019-03-16T14:38:47.916Z,18.71
2019-03-16T14:42:18.020Z,10.82
2019-03-16T14:45:49.143Z,8.93
2019-03-16T14:49:19.315Z,9.07
2019-03-16T14:52:51.053Z,12
2019-03-16T14:56:21.152Z,15.97
2019-03-16T14:59:51.178Z,7.61
2019-03-16T15:03:21.415Z,7.1
2019-03-16T15:06:51.388Z,4.61
2019-03-16T15:10:21.363Z,4.06
2019-03-16T15:13:51.399Z,4.69
2019-03-16T15:17:21.453Z,5.62
2019-03-16T15:20:51.529Z,3.58
2019-03-16T15:24:21.674Z,5.4
2019-03-16T15:27:51.763Z,4.71
2019-03-16T15:31:22.832Z,5.65
2019-03-16T15:34:52.910Z,4.92
2019-03-16T15:38:22.951Z,4.83
2019-03-16T15:41:53.020Z,3.24
2019-03-16T15:45:23.165Z,2.91
2019-03-16T15:48:53.322Z,3.9
2019-03-16T15:52:23.529Z,2.94
2019-03-16T15:55:54.562Z,4.75
2019-03-16T15:59:24.746Z,9.24
2019-03-16T16:00:16.335Z,3.86
2019-03-16T16:03:46.430Z,3.86
2019-03-16T16:07:16.695Z,1.56
2019-03-16T16:10:59.730Z,3.74
2019-03-16T16:14:31.225Z,2.01
2019-03-16T16:18:01.242Z,5.41
2019-03-16T16:21:31.365Z,5.08
2019-03-16T16:25:01.560Z,2.51
2019-03-16T16:28:31.675Z,3.69
2019-03-16T16:32:01.771Z,14.22
2019-03-16T16:35:31.876Z,3.55
2019-03-16T16:39:02.725Z,4.39
2019-03-16T16:42:32.895Z,4.3
2019-03-16T16:46:02.982Z,9.79
2019-03-16T16:49:33.046Z,3.96
2019-03-16T16:53:03.171Z,4.6
2019-03-16T16:56:34.098Z,6.8
2019-03-16T17:00:06.262Z,5.92
2019-03-16T17:03:36.333Z,4.66
2019-03-16T17:07:06.322Z,7.49
2019-03-16T17:10:36.377Z,11.6
2019-03-16T17:14:06.542Z,3.09
2019-03-16T17:17:36.561Z,3.79
2019-03-16T17:21:06.632Z,5.08
2019-03-16T17:24:36.735Z,5.65
2019-03-16T17:28:06.662Z,3.84
2019-03-16T17:31:42.076Z,4.03
2019-03-16T17:35:12.812Z,4.92
2019-03-16T17:38:42.867Z,7.51
2019-03-16T17:42:12.963Z,3.94
2019-03-16T17:45:43.068Z,3.41
2019-03-16T17:49:13.143Z,4.51
2019-03-16T17:52:43.198Z,4.47
2019-03-16T17:56:13.222Z,2.01
2019-03-16T17:59:43.368Z,6.03
2019-03-16T18:00:16.188Z,3.31
2019-03-16T18:03:46.302Z,2.35
2019-03-16T18:07:16.562Z,2.23
2019-03-16T18:10:46.532Z,6.05
2019-03-16T18:14:16.568Z,2.64
2019-03-16T18:17:46.694Z,1.04
2019-03-16T18:21:16.738Z,2.9
2019-03-16T18:24:46.747Z,2.88
2019-03-16T18:28:16.968Z,0.68
2019-03-16T18:31:46.994Z,2.55
2019-03-16T18:35:17.088Z,1.45
2019-03-16T18:38:47.204Z,3.07
2019-03-16T18:42:17.389Z,1.09
2019-03-16T18:45:47.394Z,1.99
2019-03-16T18:49:17.404Z,2.34
2019-03-16T18:52:47.430Z,1.69
2019-03-16T18:56:17.425Z,1.2
2019-03-16T18:59:48.416Z,1.95
2019-03-16T19:03:18.640Z,2.19
2019-03-16T19:06:48.736Z,1.14
2019-03-16T19:10:18.891Z,2.34
2019-03-16T19:13:49.035Z,3.51
2019-03-16T19:17:19.160Z,0.88
2019-03-16T19:20:49.235Z,4.91
2019-03-16T19:24:19.260Z,3.08
2019-03-16T19:27:49.382Z,1.09
2019-03-16T19:31:19.461Z,1.49
2019-03-16T19:34:49.435Z,2.17
2019-03-16T19:38:19.436Z,1.12
2019-03-16T19:41:49.476Z,1.66
2019-03-16T19:45:19.641Z,1.8
2019-03-16T19:48:49.667Z,1.7
2019-03-16T19:52:19.721Z,0.71
2019-03-16T19:55:49.805Z,1.43
2019-03-16T19:59:19.902Z,2.1
2019-03-16T20:00:17.152Z,8.68
2019-03-16T20:03:47.135Z,0.79
2019-03-16T20:07:19.429Z,0.9
2019-03-16T20:10:49.762Z,3.1
2019-03-16T20:14:19.981Z,0.88
2019-03-16T20:17:50.189Z,1.04
2019-03-16T20:21:20.261Z,3.66
2019-03-16T20:24:50.266Z,1.65
2019-03-16T20:28:20.431Z,1.07
2019-03-16T20:31:50.527Z,0.96
2019-03-16T20:35:20.716Z,0.53
2019-03-16T20:38:50.859Z,1.33
2019-03-16T20:42:20.939Z,3.44
2019-03-16T20:45:51.040Z,1.27
2019-03-16T20:49:21.131Z,1.49
2019-03-16T20:52:51.148Z,1.19
2019-03-16T20:56:21.294Z,0.83
2019-03-16T20:59:51.419Z,1.39
2019-03-16T21:03:21.684Z,3.21
2019-03-16T21:06:51.748Z,1.58
2019-03-16T21:10:21.886Z,2.91
2019-03-16T21:13:51.917Z,3.83
2019-03-16T21:17:22.076Z,1.46
2019-03-16T21:20:52.188Z,5.24
2019-03-16T21:24:22.231Z,2.58
2019-03-16T21:27:52.208Z,2.52
2019-03-16T21:31:22.309Z,7.06
2019-03-16T21:34:52.384Z,2.49
2019-03-16T21:38:22.500Z,2.38
2019-03-16T21:41:52.512Z,2.62
2019-03-16T21:45:22.608Z,8.57
2019-03-16T21:48:52.671Z,3.14
2019-03-16T21:52:22.805Z,2.26
2019-03-16T21:55:52.850Z,2.94
2019-03-16T21:59:22.859Z,1.81
2019-03-16T22:00:16.450Z,2.59
2019-03-16T22:03:47.549Z,2.42
2019-03-16T22:07:17.721Z,3.35
2019-03-16T22:10:47.876Z,3.47
2019-03-16T22:14:18.120Z,2.1
2019-03-16T22:17:48.145Z,2.2
2019-03-16T22:21:18.191Z,2.47
2019-03-16T22:24:48.304Z,2.76
2019-03-16T22:28:18.468Z,1.41
2019-03-16T22:31:48.424Z,1.29
2019-03-16T22:35:18.355Z,4.77
2019-03-16T22:38:48.352Z,2.01
2019-03-16T22:42:18.495Z,2.3
2019-03-16T22:45:48.470Z,1.81
2019-03-16T22:49:18.534Z,4.04
2019-03-16T22:52:48.628Z,2
2019-03-16T22:56:18.686Z,4.09
2019-03-16T22:59:48.647Z,3.74
2019-03-16T23:03:18.791Z,2.42
2019-03-16T23:06:49.836Z,3.49
2019-03-16T23:10:19.993Z,5.55
2019-03-16T23:13:50.094Z,1.27
2019-03-16T23:17:20.143Z,1.6
2019-03-16T23:20:50.223Z,5.12
2019-03-16T23:24:20.300Z,10.76
2019-03-16T23:27:50.412Z,3.27
2019-03-16T23:31:20.486Z,1.67
2019-03-16T23:34:50.635Z,4.86
2019-03-16T23:38:20.754Z,2.36
2019-03-16T23:41:50.849Z,4.24
2019-03-16T23:45:20.944Z,4.91
2019-03-16T23:48:50.978Z,4.94
2019-03-16T23:52:21.044Z,3.28
2019-03-16T23:55:51.106Z,2.02
2019-03-16T23:59:21.173Z,1.89
